createdAt,value
2019-06-20T00:00:29.595Z,0.00
2019-06-20T00:01:29.571Z,0.00
2019-06-20T00:02:29.556Z,0.00
2019-06-20T00:03:29.544Z,0.00
2019-06-20T00:04:29.530Z,0.00
2019-06-20T00:05:29.538Z,0.00
2019-06-20T00:06:29.508Z,0.00
2019-06-20T00:07:29.498Z,0.00
2019-06-20T00:08:29.485Z,0.00
2019-06-20T00:09:29.472Z,0.00
2019-06-20T00:10:29.484Z,0.00
2019-06-20T00:11:29.446Z,0.00
2019-06-20T00:12:29.436Z,0.00
2019-06-20T00:13:29.438Z,0.00
2019-06-20T00:14:29.411Z,0.00
2019-06-20T00:15:29.417Z,0.00
2019-06-20T00:16:29.413Z,0.00
2019-06-20T00:17:29.377Z,0.00
2019-06-20T00:18:29.363Z,0.00
2019-06-20T00:19:29.358Z,0.00
2019-06-20T00:20:29.438Z,0.00
2019-06-20T00:21:29.351Z,0.00
2019-06-20T00:22:29.385Z,0.00
2019-06-20T00:23:29.304Z,0.00
2019-06-20T00:24:29.302Z,0.00
2019-06-20T00:25:29.280Z,0.00
2019-06-20T00:26:29.285Z,0.00
2019-06-20T00:27:29.256Z,0.00
2019-06-20T00:28:29.247Z,0.00
2019-06-20T00:29:29.237Z,0.00
2019-06-20T00:30:29.225Z,0.00
2019-06-20T00:31:29.226Z,0.00
2019-06-20T00:32:29.202Z,0.00
2019-06-20T00:33:29.185Z,0.00
2019-06-20T00:34:29.175Z,0.00
2019-06-20T00:35:29.161Z,0.00
2019-06-20T00:36:29.177Z,0.00
2019-06-20T00:37:29.138Z,0.00
2019-06-20T00:38:29.129Z,0.00
2019-06-20T00:39:29.123Z,0.00
2019-06-20T00:40:29.110Z,0.00
2019-06-20T00:41:29.111Z,0.00
2019-06-20T00:42:29.084Z,0.00
2019-06-20T00:43:29.073Z,0.00
2019-06-20T00:44:29.089Z,0.00
2019-06-20T00:45:29.053Z,0.00
2019-06-20T00:46:29.074Z,0.00
2019-06-20T00:47:29.021Z,0.00
2019-06-20T00:48:29.010Z,0.00
2019-06-20T00:49:28.996Z,0.00
2019-06-20T00:50:28.986Z,0.00
2019-06-20T00:51:28.975Z,0.00
2019-06-20T00:52:28.985Z,0.00
2019-06-20T00:53:28.954Z,0.00
2019-06-20T00:54:28.941Z,0.00
2019-06-20T00:55:28.934Z,0.00
2019-06-20T00:56:28.916Z,0.00
2019-06-20T00:57:28.930Z,0.00
2019-06-20T00:58:28.897Z,0.00
2019-06-20T00:59:28.895Z,0.00
2019-06-20T01:00:28.869Z,0.00
2019-06-20T01:01:28.858Z,0.00
2019-06-20T01:02:28.868Z,0.00
2019-06-20T01:03:28.841Z,0.00
2019-06-20T01:04:28.832Z,0.00
2019-06-20T01:05:28.810Z,0.00
2019-06-20T01:06:28.879Z,0.00
2019-06-20T01:07:28.811Z,0.00
2019-06-20T01:08:28.778Z,0.00
2019-06-20T01:09:28.767Z,0.00
2019-06-20T01:10:28.756Z,0.00
2019-06-20T01:11:28.773Z,0.00
2019-06-20T01:12:28.736Z,0.00
2019-06-20T01:13:33.571Z,0.00
2019-06-20T01:14:29.707Z,0.00
2019-06-20T01:15:28.707Z,0.00
2019-06-20T01:16:28.716Z,0.00
2019-06-20T01:17:28.680Z,0.00
2019-06-20T01:18:28.682Z,0.00
2019-06-20T01:19:28.653Z,0.00
2019-06-20T01:20:28.641Z,0.00
2019-06-20T01:21:28.650Z,0.00
2019-06-20T01:22:28.614Z,0.00
2019-06-20T01:23:28.603Z,0.00
2019-06-20T01:24:28.634Z,0.00
2019-06-20T01:25:28.579Z,0.00
2019-06-20T01:26:28.589Z,0.00
2019-06-20T01:27:28.555Z,0.00
2019-06-20T01:28:28.545Z,0.00
2019-06-20T01:29:28.532Z,0.00
2019-06-20T01:30:28.533Z,0.00
2019-06-20T01:31:28.527Z,0.00
2019-06-20T01:32:28.530Z,0.00
2019-06-20T01:33:28.490Z,0.00
2019-06-20T01:34:28.474Z,0.00
2019-06-20T01:35:28.461Z,0.00
2019-06-20T01:36:28.472Z,0.00
2019-06-20T01:37:28.449Z,0.00
2019-06-20T01:38:28.441Z,0.00
2019-06-20T01:39:28.415Z,0.00
2019-06-20T01:40:28.413Z,0.00
2019-06-20T01:41:28.414Z,0.00
2019-06-20T01:42:28.379Z,0.00
2019-06-20T01:43:28.371Z,0.00
2019-06-20T01:44:28.362Z,0.00
2019-06-20T01:45:28.351Z,0.00
2019-06-20T01:46:28.370Z,0.00
2019-06-20T01:47:28.325Z,0.00
2019-06-20T01:48:28.314Z,0.00
2019-06-20T01:49:28.298Z,0.00
2019-06-20T01:50:28.288Z,0.00
2019-06-20T01:51:28.276Z,0.00
2019-06-20T01:52:28.288Z,0.00
2019-06-20T01:53:28.253Z,0.00
2019-06-20T01:54:28.240Z,0.00
2019-06-20T01:55:28.267Z,0.00
2019-06-20T01:56:28.222Z,0.00
2019-06-20T01:57:28.225Z,0.00
2019-06-20T01:58:28.194Z,0.00
2019-06-20T01:59:28.183Z,0.00
2019-06-20T02:00:28.169Z,0.00
2019-06-20T02:01:28.158Z,0.00
2019-06-20T02:02:28.166Z,0.00
2019-06-20T02:03:28.143Z,0.00
2019-06-20T02:04:28.127Z,0.00
2019-06-20T02:05:28.114Z,0.00
2019-06-20T02:06:28.107Z,0.00
2019-06-20T02:07:28.442Z,0.00
2019-06-20T02:08:28.084Z,0.00
2019-06-20T02:09:28.075Z,0.00
2019-06-20T02:10:28.055Z,0.00
2019-06-20T02:11:28.042Z,0.00
2019-06-20T02:12:28.051Z,0.00
2019-06-20T02:13:28.018Z,0.00
2019-06-20T02:14:28.016Z,0.00
2019-06-20T02:15:27.995Z,0.00
2019-06-20T02:16:27.984Z,0.00
2019-06-20T02:17:27.997Z,0.00
2019-06-20T02:18:27.966Z,0.00
2019-06-20T02:19:27.950Z,0.00
2019-06-20T02:20:27.937Z,0.00
2019-06-20T02:21:27.928Z,0.00
2019-06-20T02:22:27.915Z,0.00
2019-06-20T02:23:27.923Z,0.00
2019-06-20T02:24:27.926Z,0.00
2019-06-20T02:25:28.033Z,0.00
2019-06-20T02:26:27.867Z,0.00
2019-06-20T02:27:27.857Z,0.00
2019-06-20T02:28:27.862Z,0.00
2019-06-20T02:29:27.833Z,0.00
2019-06-20T02:30:27.833Z,0.00
2019-06-20T02:31:27.811Z,0.00
2019-06-20T02:32:27.797Z,0.00
2019-06-20T02:33:27.806Z,0.00
2019-06-20T02:34:27.780Z,0.00
2019-06-20T02:35:27.763Z,0.00
2019-06-20T02:36:27.757Z,0.00
2019-06-20T02:37:27.742Z,0.00
2019-06-20T02:38:27.749Z,0.00
2019-06-20T02:39:27.718Z,0.00
2019-06-20T02:40:27.710Z,0.00
2019-06-20T02:41:27.695Z,0.00
2019-06-20T02:42:27.685Z,0.00
2019-06-20T02:43:27.715Z,0.00
2019-06-20T02:44:30.542Z,0.00
2019-06-20T02:45:27.658Z,0.00
2019-06-20T02:46:27.638Z,0.00
2019-06-20T02:47:27.635Z,0.00
2019-06-20T02:48:27.621Z,0.00
2019-06-20T02:49:27.620Z,0.00
2019-06-20T02:50:27.594Z,0.00
2019-06-20T02:51:27.577Z,0.00
2019-06-20T02:52:27.569Z,0.00
2019-06-20T02:53:27.561Z,0.00
2019-06-20T02:54:27.563Z,0.00
2019-06-20T02:55:27.533Z,0.00
2019-06-20T02:56:27.527Z,0.00
2019-06-20T02:57:27.558Z,0.00
2019-06-20T02:58:27.523Z,0.00
2019-06-20T02:59:27.503Z,0.00
2019-06-20T03:00:27.471Z,0.00
2019-06-20T03:01:27.471Z,0.00
2019-06-20T03:02:27.452Z,0.00
2019-06-20T03:03:27.455Z,0.00
2019-06-20T03:04:27.473Z,0.00
2019-06-20T03:05:27.419Z,0.00
2019-06-20T03:06:27.422Z,0.00
2019-06-20T03:07:27.391Z,0.00
2019-06-20T03:08:27.381Z,0.00
2019-06-20T03:09:27.412Z,0.00
2019-06-20T03:10:27.356Z,0.00
2019-06-20T03:11:27.346Z,0.00
2019-06-20T03:12:27.341Z,0.00
2019-06-20T03:13:27.324Z,0.00
2019-06-20T03:14:27.315Z,0.00
2019-06-20T03:15:27.326Z,0.00
2019-06-20T03:16:27.289Z,5.62
2019-06-20T03:17:27.276Z,5.62
2019-06-20T03:18:27.266Z,5.62
2019-06-20T03:19:27.254Z,0.00
2019-06-20T03:20:27.262Z,0.00
2019-06-20T03:21:27.229Z,5.62
2019-06-20T03:22:27.223Z,5.62
2019-06-20T03:23:27.209Z,5.62
2019-06-20T03:24:27.197Z,5.62
2019-06-20T03:25:27.205Z,5.62
2019-06-20T03:26:27.173Z,5.62
2019-06-20T03:27:27.166Z,5.62
2019-06-20T03:28:27.150Z,5.62
2019-06-20T03:29:27.136Z,5.62
2019-06-20T03:30:27.145Z,5.62
2019-06-20T03:31:27.116Z,5.62
2019-06-20T03:32:27.103Z,5.62
2019-06-20T03:33:27.101Z,5.62
2019-06-20T03:34:27.083Z,11.25
2019-06-20T03:35:27.089Z,11.25
2019-06-20T03:36:27.058Z,16.88
2019-06-20T03:37:27.045Z,16.88
2019-06-20T03:38:27.031Z,16.88
2019-06-20T03:39:27.021Z,16.88
2019-06-20T03:40:27.030Z,16.88
2019-06-20T03:41:27.003Z,16.88
2019-06-20T03:42:26.993Z,16.88
2019-06-20T03:43:26.977Z,16.88
2019-06-20T03:44:26.962Z,22.50
2019-06-20T03:45:26.970Z,22.50
2019-06-20T03:46:26.941Z,16.88
2019-06-20T03:47:26.999Z,22.50
2019-06-20T03:48:26.917Z,22.50
2019-06-20T03:49:26.924Z,22.50
2019-06-20T03:50:26.911Z,22.50
2019-06-20T03:51:26.883Z,28.12
2019-06-20T03:52:26.870Z,28.12
2019-06-20T03:53:26.857Z,28.12
2019-06-20T03:54:26.846Z,28.12
2019-06-20T03:55:26.860Z,33.75
2019-06-20T03:56:26.832Z,33.75
2019-06-20T03:57:26.812Z,33.75
2019-06-20T03:58:26.798Z,39.38
2019-06-20T03:59:26.786Z,39.38
2019-06-20T04:00:26.796Z,39.38
2019-06-20T04:01:26.765Z,39.38
2019-06-20T04:02:26.753Z,39.38
2019-06-20T04:03:26.742Z,39.38
2019-06-20T04:04:26.733Z,39.38
2019-06-20T04:05:26.740Z,39.38
2019-06-20T04:06:26.714Z,39.38
2019-06-20T04:07:26.695Z,39.38
2019-06-20T04:08:26.686Z,45.00
2019-06-20T04:09:26.673Z,45.00
2019-06-20T04:10:26.683Z,45.00
2019-06-20T04:11:26.651Z,50.62
2019-06-20T04:12:26.638Z,50.62
2019-06-20T04:13:26.633Z,56.25
2019-06-20T04:14:26.616Z,56.25
2019-06-20T04:15:26.623Z,61.88
2019-06-20T04:16:26.590Z,61.88
2019-06-20T04:17:26.580Z,67.50
2019-06-20T04:18:26.581Z,73.12
2019-06-20T04:19:26.561Z,84.38
2019-06-20T04:20:26.546Z,101.25
2019-06-20T04:21:26.554Z,106.88
2019-06-20T04:22:26.520Z,106.88
2019-06-20T04:23:26.510Z,95.62
2019-06-20T04:24:27.966Z,95.62
2019-06-20T04:25:26.486Z,95.62
2019-06-20T04:26:26.499Z,95.62
2019-06-20T04:27:26.469Z,90.00
2019-06-20T04:28:26.463Z,84.38
2019-06-20T04:29:26.441Z,73.12
2019-06-20T04:30:26.430Z,73.12
2019-06-20T04:31:26.441Z,84.38
2019-06-20T04:32:26.409Z,84.38
2019-06-20T04:33:26.401Z,78.75
2019-06-20T04:34:26.381Z,67.50
2019-06-20T04:35:26.376Z,84.38
2019-06-20T04:36:26.384Z,78.75
2019-06-20T04:37:26.352Z,73.12
2019-06-20T04:38:26.336Z,73.12
2019-06-20T04:39:26.328Z,90.00
2019-06-20T04:40:26.317Z,95.62
2019-06-20T04:41:26.323Z,95.62
2019-06-20T04:42:26.294Z,95.62
2019-06-20T04:43:26.284Z,90.00
2019-06-20T04:44:26.270Z,78.75
2019-06-20T04:45:34.968Z,84.38
2019-06-20T04:46:27.265Z,90.00
2019-06-20T04:47:26.232Z,78.75
2019-06-20T04:48:26.223Z,67.50
2019-06-20T04:49:26.211Z,56.25
2019-06-20T04:50:26.207Z,45.00
2019-06-20T04:51:26.207Z,50.62
2019-06-20T04:52:26.176Z,73.12
2019-06-20T04:53:26.164Z,90.00
2019-06-20T04:54:26.157Z,90.00
2019-06-20T04:55:26.157Z,84.38
2019-06-20T04:56:26.148Z,84.38
2019-06-20T04:57:26.120Z,90.00
2019-06-20T04:58:26.109Z,90.00
2019-06-20T04:59:26.092Z,84.38
2019-06-20T05:00:26.084Z,90.00
2019-06-20T05:01:26.090Z,101.25
2019-06-20T05:02:26.060Z,101.25
2019-06-20T05:03:26.048Z,101.25
2019-06-20T05:04:26.037Z,106.88
2019-06-20T05:05:26.025Z,101.25
2019-06-20T05:06:26.032Z,106.88
2019-06-20T05:07:26.002Z,95.62
2019-06-20T05:08:25.992Z,90.00
2019-06-20T05:09:25.982Z,90.00
2019-06-20T05:10:25.972Z,90.00
2019-06-20T05:11:25.977Z,90.00
2019-06-20T05:12:25.945Z,84.38
2019-06-20T05:13:25.933Z,78.75
2019-06-20T05:14:25.920Z,84.38
2019-06-20T05:15:25.908Z,84.38
2019-06-20T05:16:25.920Z,90.00
2019-06-20T05:17:25.888Z,95.62
2019-06-20T05:18:25.880Z,101.25
2019-06-20T05:19:25.863Z,101.25
2019-06-20T05:20:25.853Z,95.62
2019-06-20T05:21:25.862Z,73.12
2019-06-20T05:22:25.841Z,61.88
2019-06-20T05:23:25.862Z,61.88
2019-06-20T05:24:25.804Z,56.25
2019-06-20T05:25:25.806Z,61.88
2019-06-20T05:26:25.801Z,61.88
2019-06-20T05:27:25.770Z,56.25
2019-06-20T05:28:25.762Z,56.25
2019-06-20T05:29:25.750Z,56.25
2019-06-20T05:30:25.735Z,61.88
2019-06-20T05:31:25.746Z,73.12
2019-06-20T05:32:25.717Z,90.00
2019-06-20T05:33:25.703Z,129.38
2019-06-20T05:34:25.690Z,180.00
2019-06-20T05:35:25.680Z,208.12
2019-06-20T05:36:25.691Z,213.75
2019-06-20T05:37:25.666Z,213.75
2019-06-20T05:38:25.643Z,185.62
2019-06-20T05:39:25.632Z,174.38
2019-06-20T05:40:25.627Z,180.00
2019-06-20T05:41:25.632Z,191.25
2019-06-20T05:42:25.602Z,213.75
2019-06-20T05:43:25.586Z,225.00
2019-06-20T05:44:25.576Z,208.12
2019-06-20T05:45:25.568Z,180.00
2019-06-20T05:46:25.551Z,157.50
2019-06-20T05:47:25.561Z,135.00
2019-06-20T05:48:25.529Z,140.62
2019-06-20T05:49:25.521Z,129.38
2019-06-20T05:50:25.506Z,118.12
2019-06-20T05:51:25.495Z,106.88
2019-06-20T05:52:25.518Z,101.25
2019-06-20T05:53:25.474Z,101.25
2019-06-20T05:54:25.454Z,95.62
2019-06-20T05:55:25.445Z,95.62
2019-06-20T05:56:26.047Z,90.00
2019-06-20T05:57:25.423Z,90.00
2019-06-20T05:58:25.428Z,95.62
2019-06-20T05:59:25.770Z,101.25
2019-06-20T06:00:25.383Z,101.25
2019-06-20T06:01:26.362Z,112.50
2019-06-20T06:02:25.371Z,123.75
2019-06-20T06:03:25.370Z,129.38
2019-06-20T06:04:25.343Z,140.62
2019-06-20T06:05:25.324Z,146.25
2019-06-20T06:06:25.322Z,151.88
2019-06-20T06:07:25.302Z,146.25
2019-06-20T06:08:25.317Z,151.88
2019-06-20T06:09:25.280Z,168.75
2019-06-20T06:10:25.269Z,185.62
2019-06-20T06:11:25.265Z,208.12
2019-06-20T06:12:25.248Z,230.62
2019-06-20T06:13:25.251Z,241.88
2019-06-20T06:14:25.254Z,281.25
2019-06-20T06:15:25.208Z,337.50
2019-06-20T06:16:27.496Z,388.12
2019-06-20T06:17:25.184Z,427.50
2019-06-20T06:18:25.192Z,433.12
2019-06-20T06:19:25.161Z,393.75
2019-06-20T06:20:25.152Z,326.25
2019-06-20T06:21:32.299Z,320.62
2019-06-20T06:22:25.153Z,331.88
2019-06-20T06:23:25.134Z,376.88
2019-06-20T06:24:25.135Z,399.38
2019-06-20T06:25:25.087Z,354.38
2019-06-20T06:26:25.089Z,303.75
2019-06-20T06:27:25.068Z,275.62
2019-06-20T06:28:25.072Z,247.50
2019-06-20T06:29:25.049Z,230.62
2019-06-20T06:30:25.027Z,208.12
2019-06-20T06:31:25.018Z,219.38
2019-06-20T06:32:39.237Z,253.12
2019-06-20T06:33:26.014Z,264.38
2019-06-20T06:34:24.982Z,286.88
2019-06-20T06:35:25.102Z,298.12
2019-06-20T06:36:24.956Z,303.75
2019-06-20T06:37:24.949Z,337.50
2019-06-20T06:38:24.936Z,326.25
2019-06-20T06:39:24.941Z,337.50
2019-06-20T06:40:24.911Z,365.62
2019-06-20T06:41:24.902Z,376.88
2019-06-20T06:42:24.895Z,388.12
2019-06-20T06:43:25.043Z,405.00
2019-06-20T06:44:24.938Z,433.12
2019-06-20T06:45:24.874Z,461.25
2019-06-20T06:46:24.850Z,433.12
2019-06-20T06:47:24.834Z,438.75
2019-06-20T06:48:24.834Z,421.88
2019-06-20T06:49:24.844Z,388.12
2019-06-20T06:50:24.795Z,382.50
2019-06-20T06:51:24.834Z,376.88
2019-06-20T06:52:24.772Z,348.75
2019-06-20T06:53:24.906Z,320.62
2019-06-20T06:54:24.763Z,309.38
2019-06-20T06:55:27.516Z,360.00
2019-06-20T06:56:24.736Z,410.62
2019-06-20T06:57:24.714Z,427.50
2019-06-20T06:58:24.703Z,506.25
2019-06-20T06:59:24.711Z,540.00
2019-06-20T07:00:24.678Z,562.50
2019-06-20T07:01:24.675Z,568.12
2019-06-20T07:02:24.654Z,596.25
2019-06-20T07:03:24.643Z,607.50
2019-06-20T07:04:24.633Z,613.12
2019-06-20T07:05:24.637Z,601.88
2019-06-20T07:06:24.716Z,607.50
2019-06-20T07:07:24.598Z,663.75
2019-06-20T07:08:24.589Z,720.00
2019-06-20T07:09:24.576Z,618.75
2019-06-20T07:10:24.617Z,613.12
2019-06-20T07:11:24.551Z,556.88
2019-06-20T07:12:24.548Z,500.62
2019-06-20T07:13:24.528Z,438.75
2019-06-20T07:14:24.525Z,421.88
2019-06-20T07:15:24.525Z,410.62
2019-06-20T07:16:24.495Z,399.38
2019-06-20T07:17:24.485Z,421.88
2019-06-20T07:18:24.475Z,466.88
2019-06-20T07:19:24.461Z,523.12
2019-06-20T07:20:24.465Z,568.12
2019-06-20T07:21:24.439Z,613.12
2019-06-20T07:22:24.424Z,663.75
2019-06-20T07:23:24.413Z,703.12
2019-06-20T07:24:24.405Z,736.88
2019-06-20T07:25:24.433Z,821.25
2019-06-20T07:26:24.379Z,883.12
2019-06-20T07:27:24.369Z,759.38
2019-06-20T07:28:24.356Z,736.88
2019-06-20T07:29:24.344Z,652.50
2019-06-20T07:30:24.332Z,590.62
2019-06-20T07:31:24.338Z,568.12
2019-06-20T07:32:24.383Z,585.00
2019-06-20T07:33:24.295Z,545.62
2019-06-20T07:34:24.289Z,483.75
2019-06-20T07:35:24.272Z,455.62
2019-06-20T07:36:24.279Z,444.38
2019-06-20T07:37:24.247Z,427.50
2019-06-20T07:38:24.246Z,416.25
2019-06-20T07:39:24.227Z,444.38
2019-06-20T07:40:24.213Z,455.62
2019-06-20T07:41:24.218Z,478.12
2019-06-20T07:42:24.195Z,483.75
2019-06-20T07:43:24.179Z,450.00
2019-06-20T07:44:24.208Z,382.50
2019-06-20T07:45:27.134Z,343.12
2019-06-20T07:46:24.162Z,348.75
2019-06-20T07:47:24.131Z,331.88
2019-06-20T07:48:24.128Z,298.12
2019-06-20T07:49:24.107Z,303.75
2019-06-20T07:50:24.097Z,315.00
2019-06-20T07:51:24.160Z,399.38
2019-06-20T07:52:24.074Z,427.50
2019-06-20T07:53:24.067Z,438.75
2019-06-20T07:54:24.057Z,455.62
2019-06-20T07:55:24.040Z,506.25
2019-06-20T07:56:24.045Z,523.12
2019-06-20T07:57:24.022Z,551.25
2019-06-20T07:58:24.003Z,618.75
2019-06-20T07:59:23.995Z,658.12
2019-06-20T08:00:24.005Z,765.00
2019-06-20T08:01:23.991Z,939.38
2019-06-20T08:02:23.957Z,2283.75
2019-06-20T08:03:23.948Z,2115.00
2019-06-20T08:04:23.933Z,2722.50
2019-06-20T08:05:23.923Z,2722.50
2019-06-20T08:06:23.930Z,1760.62
2019-06-20T08:07:23.901Z,2666.25
2019-06-20T08:08:23.888Z,2891.25
2019-06-20T08:09:23.878Z,2801.25
2019-06-20T08:10:23.893Z,1603.12
2019-06-20T08:11:23.873Z,3166.88
2019-06-20T08:12:23.847Z,1833.75
2019-06-20T08:13:23.831Z,3330.00
2019-06-20T08:14:23.821Z,1209.38
2019-06-20T08:15:23.809Z,2806.88
2019-06-20T08:16:23.816Z,2508.75
2019-06-20T08:17:34.697Z,3127.50
2019-06-20T08:18:24.797Z,1237.50
2019-06-20T08:19:23.765Z,2745.00
2019-06-20T08:20:23.754Z,2812.50
2019-06-20T08:21:23.762Z,2205.00
2019-06-20T08:22:23.734Z,1940.62
2019-06-20T08:23:23.721Z,2469.38
2019-06-20T08:24:23.711Z,2503.12
2019-06-20T08:25:23.699Z,2480.62
2019-06-20T08:26:23.684Z,1321.88
2019-06-20T08:27:23.694Z,2896.88
2019-06-20T08:28:23.663Z,2306.25
2019-06-20T08:29:23.661Z,1057.50
2019-06-20T08:30:23.644Z,871.88
2019-06-20T08:31:23.631Z,1001.25
2019-06-20T08:32:23.667Z,1282.50
2019-06-20T08:33:23.611Z,2643.75
2019-06-20T08:34:23.598Z,1518.75
2019-06-20T08:35:23.594Z,1001.25
2019-06-20T08:36:23.579Z,1839.38
2019-06-20T08:37:23.606Z,2835.00
2019-06-20T08:38:23.558Z,2823.75
2019-06-20T08:39:23.545Z,2868.75
2019-06-20T08:40:23.531Z,2908.12
2019-06-20T08:41:23.520Z,2840.62
2019-06-20T08:42:23.509Z,2818.12
2019-06-20T08:43:23.523Z,2936.25
2019-06-20T08:44:23.488Z,2272.50
2019-06-20T08:45:23.480Z,950.62
2019-06-20T08:46:23.469Z,832.50
2019-06-20T08:47:23.457Z,1074.38
2019-06-20T08:48:23.475Z,1108.12
2019-06-20T08:49:23.441Z,1046.25
2019-06-20T08:50:23.426Z,1040.62
2019-06-20T08:51:23.414Z,2964.38
2019-06-20T08:52:23.417Z,1181.25
2019-06-20T08:53:23.422Z,2205.00
2019-06-20T08:54:23.381Z,1743.75
2019-06-20T08:55:23.370Z,1321.88
2019-06-20T08:56:23.363Z,894.38
2019-06-20T08:57:23.498Z,939.38
2019-06-20T08:58:23.357Z,950.62
2019-06-20T08:59:24.786Z,2047.50
2019-06-20T09:00:23.362Z,2103.75
2019-06-20T09:01:23.348Z,826.88
2019-06-20T09:02:23.309Z,787.50
2019-06-20T09:03:23.299Z,731.25
2019-06-20T09:04:23.274Z,641.25
2019-06-20T09:05:23.263Z,596.25
2019-06-20T09:06:23.250Z,641.25
2019-06-20T09:07:23.238Z,759.38
2019-06-20T09:08:23.248Z,855.00
2019-06-20T09:09:23.214Z,1220.62
2019-06-20T09:10:23.203Z,855.00
2019-06-20T09:11:23.195Z,894.38
2019-06-20T09:12:23.187Z,3841.88
2019-06-20T09:13:23.195Z,1288.12
2019-06-20T09:14:23.159Z,3386.25
2019-06-20T09:15:23.146Z,3240.00
2019-06-20T09:16:24.801Z,4775.62
2019-06-20T09:17:23.134Z,1085.62
2019-06-20T09:18:23.134Z,1501.88
2019-06-20T09:19:23.106Z,5619.38
2019-06-20T09:20:23.093Z,4961.25
2019-06-20T09:21:23.093Z,3915.00
2019-06-20T09:22:23.072Z,1136.25
2019-06-20T09:23:23.080Z,1119.38
2019-06-20T09:24:23.055Z,1119.38
2019-06-20T09:25:23.041Z,4016.25
2019-06-20T09:26:23.029Z,5551.88
2019-06-20T09:27:23.017Z,4995.00
2019-06-20T09:28:23.026Z,1406.25
2019-06-20T09:29:22.996Z,1203.75
2019-06-20T09:30:22.992Z,770.62
2019-06-20T09:31:22.987Z,720.00
2019-06-20T09:32:22.969Z,765.00
2019-06-20T09:33:22.972Z,641.25
2019-06-20T09:34:22.944Z,556.88
2019-06-20T09:35:22.930Z,545.62
2019-06-20T09:36:22.918Z,506.25
2019-06-20T09:37:22.909Z,472.50
2019-06-20T09:38:22.915Z,450.00
2019-06-20T09:39:22.885Z,444.38
2019-06-20T09:40:22.877Z,461.25
2019-06-20T09:41:22.866Z,511.88
2019-06-20T09:42:22.856Z,562.50
2019-06-20T09:43:27.574Z,635.62
2019-06-20T09:44:23.830Z,714.38
2019-06-20T09:45:22.820Z,804.38
2019-06-20T09:46:22.810Z,883.12
2019-06-20T09:47:22.802Z,990.00
2019-06-20T09:48:22.784Z,1299.38
2019-06-20T09:49:22.792Z,5928.75
2019-06-20T09:50:22.764Z,1777.50
2019-06-20T09:51:22.759Z,995.62
2019-06-20T09:52:22.792Z,708.75
2019-06-20T09:53:22.728Z,540.00
2019-06-20T09:54:22.736Z,416.25
2019-06-20T09:55:22.704Z,331.88
2019-06-20T09:56:22.693Z,298.12
2019-06-20T09:57:22.683Z,292.50
2019-06-20T09:58:22.670Z,371.25
2019-06-20T09:59:27.519Z,517.50
2019-06-20T10:00:23.648Z,720.00
2019-06-20T10:01:22.636Z,967.50
2019-06-20T10:02:22.638Z,2362.50
2019-06-20T10:03:22.617Z,1023.75
2019-06-20T10:04:22.622Z,984.38
2019-06-20T10:05:22.594Z,894.38
2019-06-20T10:06:22.580Z,787.50
2019-06-20T10:07:22.568Z,736.88
2019-06-20T10:08:22.558Z,736.88
2019-06-20T10:09:22.573Z,759.38
2019-06-20T10:10:22.598Z,832.50
2019-06-20T10:11:22.523Z,832.50
2019-06-20T10:12:22.519Z,759.38
2019-06-20T10:13:22.507Z,967.50
2019-06-20T10:14:22.520Z,4843.12
2019-06-20T10:15:22.478Z,5068.12
2019-06-20T10:16:22.467Z,4876.88
2019-06-20T10:17:22.454Z,5321.25
2019-06-20T10:18:22.448Z,3375.00
2019-06-20T10:19:22.454Z,1299.38
2019-06-20T10:20:22.426Z,950.62
2019-06-20T10:21:22.409Z,838.12
2019-06-20T10:22:22.402Z,590.62
2019-06-20T10:23:22.392Z,433.12
2019-06-20T10:24:22.419Z,331.88
2019-06-20T10:25:22.370Z,298.12
2019-06-20T10:26:22.357Z,331.88
2019-06-20T10:27:22.350Z,416.25
2019-06-20T10:28:22.333Z,534.38
2019-06-20T10:29:22.328Z,686.25
2019-06-20T10:30:22.331Z,798.75
2019-06-20T10:31:22.303Z,860.62
2019-06-20T10:32:22.291Z,928.12
2019-06-20T10:33:22.276Z,1018.12
2019-06-20T10:34:22.267Z,1175.62
2019-06-20T10:35:22.270Z,1445.62
2019-06-20T10:36:22.245Z,2266.88
2019-06-20T10:37:22.230Z,1226.25
2019-06-20T10:38:22.227Z,1130.62
2019-06-20T10:39:22.208Z,900.00
2019-06-20T10:40:22.212Z,1321.88
2019-06-20T10:41:22.182Z,1541.25
2019-06-20T10:42:22.174Z,4601.25
2019-06-20T10:43:22.159Z,4432.50
2019-06-20T10:44:22.155Z,3667.50
2019-06-20T10:45:22.156Z,4556.25
2019-06-20T10:46:22.127Z,5186.25
2019-06-20T10:47:32.397Z,5208.75
2019-06-20T10:48:23.109Z,5062.50
2019-06-20T10:49:22.097Z,3999.38
2019-06-20T10:50:22.107Z,4606.88
2019-06-20T10:51:22.080Z,804.38
2019-06-20T10:52:22.062Z,680.62
2019-06-20T10:53:22.054Z,641.25
2019-06-20T10:54:22.038Z,630.00
2019-06-20T10:55:22.045Z,641.25
2019-06-20T10:56:22.023Z,669.38
2019-06-20T10:57:22.008Z,742.50
2019-06-20T10:58:21.994Z,826.88
2019-06-20T10:59:21.992Z,950.62
2019-06-20T11:00:30.727Z,1119.38
2019-06-20T11:01:22.968Z,2356.88
2019-06-20T11:02:21.960Z,5231.25
2019-06-20T11:03:21.942Z,3847.50
2019-06-20T11:04:21.939Z,4668.75
2019-06-20T11:05:21.929Z,1811.25
2019-06-20T11:06:21.947Z,1760.62
2019-06-20T11:07:21.905Z,1906.88
2019-06-20T11:08:21.886Z,2452.50
2019-06-20T11:09:21.877Z,5490.00
2019-06-20T11:10:21.861Z,2058.75
2019-06-20T11:11:21.911Z,4899.38
2019-06-20T11:12:21.840Z,1625.62
2019-06-20T11:13:21.846Z,1743.75
2019-06-20T11:14:21.821Z,4342.50
2019-06-20T11:15:21.809Z,1856.25
2019-06-20T11:16:21.821Z,2165.62
2019-06-20T11:17:21.785Z,3296.25
2019-06-20T11:18:21.778Z,4218.75
2019-06-20T11:19:21.767Z,2705.62
2019-06-20T11:20:21.755Z,3375.00
2019-06-20T11:21:21.774Z,4185.00
2019-06-20T11:22:21.780Z,5135.62
2019-06-20T11:23:21.723Z,5141.25
2019-06-20T11:24:21.919Z,1867.50
2019-06-20T11:25:21.700Z,4016.25
2019-06-20T11:26:21.715Z,3526.88
2019-06-20T11:27:21.717Z,2722.50
2019-06-20T11:28:21.667Z,1372.50
2019-06-20T11:29:21.660Z,1175.62
2019-06-20T11:30:21.655Z,1546.88
2019-06-20T11:31:21.658Z,1136.25
2019-06-20T11:32:21.627Z,1119.38
2019-06-20T11:33:21.615Z,1023.75
2019-06-20T11:34:21.604Z,821.25
2019-06-20T11:35:21.596Z,703.12
2019-06-20T11:36:21.582Z,742.50
2019-06-20T11:37:21.590Z,742.50
2019-06-20T11:38:21.562Z,798.75
2019-06-20T11:39:21.552Z,849.38
2019-06-20T11:40:21.542Z,753.75
2019-06-20T11:41:21.548Z,663.75
2019-06-20T11:42:21.523Z,607.50
2019-06-20T11:43:21.522Z,556.88
2019-06-20T11:44:21.497Z,540.00
2019-06-20T11:45:21.507Z,568.12
2019-06-20T11:46:21.494Z,641.25
2019-06-20T11:47:21.465Z,731.25
2019-06-20T11:48:21.456Z,815.62
2019-06-20T11:49:21.439Z,911.25
2019-06-20T11:50:21.436Z,1006.88
2019-06-20T11:51:21.441Z,1091.25
2019-06-20T11:52:21.404Z,1305.00
2019-06-20T11:53:21.394Z,2036.25
2019-06-20T11:54:21.385Z,1563.75
2019-06-20T11:55:21.372Z,1310.62
2019-06-20T11:56:21.358Z,1125.00
2019-06-20T11:57:21.372Z,973.12
2019-06-20T11:58:23.477Z,916.88
2019-06-20T11:59:21.325Z,894.38
2019-06-20T12:00:21.318Z,810.00
2019-06-20T12:01:32.509Z,731.25
2019-06-20T12:02:22.324Z,697.50
2019-06-20T12:03:21.279Z,697.50
2019-06-20T12:04:21.271Z,742.50
2019-06-20T12:05:21.259Z,793.12
2019-06-20T12:06:21.246Z,826.88
2019-06-20T12:07:21.250Z,793.12
2019-06-20T12:08:21.222Z,708.75
2019-06-20T12:09:21.213Z,641.25
2019-06-20T12:10:21.201Z,556.88
2019-06-20T12:11:21.188Z,511.88
2019-06-20T12:12:21.208Z,450.00
2019-06-20T12:13:21.165Z,410.62
2019-06-20T12:14:21.154Z,376.88
2019-06-20T12:15:21.141Z,354.38
2019-06-20T12:16:21.130Z,354.38
2019-06-20T12:17:21.144Z,388.12
2019-06-20T12:18:21.112Z,405.00
2019-06-20T12:19:21.096Z,388.12
2019-06-20T12:20:21.085Z,371.25
2019-06-20T12:21:21.082Z,360.00
2019-06-20T12:22:21.083Z,382.50
2019-06-20T12:23:21.051Z,410.62
2019-06-20T12:24:28.174Z,478.12
2019-06-20T12:25:21.025Z,562.50
2019-06-20T12:26:21.023Z,663.75
2019-06-20T12:27:21.028Z,714.38
2019-06-20T12:28:20.994Z,708.75
2019-06-20T12:29:20.985Z,663.75
2019-06-20T12:30:20.969Z,635.62
2019-06-20T12:31:20.961Z,607.50
2019-06-20T12:32:20.966Z,579.38
2019-06-20T12:33:20.939Z,573.75
2019-06-20T12:34:21.012Z,562.50
2019-06-20T12:35:20.945Z,534.38
2019-06-20T12:36:20.908Z,528.75
2019-06-20T12:37:20.911Z,523.12
2019-06-20T12:38:20.881Z,517.50
2019-06-20T12:39:20.869Z,528.75
2019-06-20T12:40:20.858Z,551.25
2019-06-20T12:41:20.845Z,596.25